Time;durP1;ratioP1;P1;durP2;ratioP2;P2;SDS_P1;SDS_P2;PMS_P1;PMS_P2;Temp;Humidity;BMP_temperature;BMP_pressure;BME280_temperature;BME280_humidity;BME280_pressure;Samples;Min_cycle;Max_cycle;Signal;HPM_P1;HPM_P2
2021/06/24 00:01:33;;;;;;;15.35;5.93;;;16.80;99.90;;;;;;5127615;28;20227;-74
2021/06/24 00:03:59;;;;;;;11.55;6.55;;;16.70;99.90;;;;;;5127782;28;20186;-74
2021/06/24 00:06:25;;;;;;;9.00;5.85;;;16.70;99.90;;;;;;5127838;28;20286;-75
2021/06/24 00:08:50;;;;;;;20.00;6.90;;;16.70;99.90;;;;;;5125282;28;20166;-75
2021/06/24 00:11:16;;;;;;;9.77;6.32;;;16.80;99.90;;;;;;5126878;28;20728;-74
2021/06/24 00:13:42;;;;;;;8.30;6.35;;;17.00;99.90;;;;;;5127784;28;20167;-74
2021/06/24 00:16:08;;;;;;;16.55;7.60;;;17.20;99.90;;;;;;5127457;28;20188;-74
2021/06/24 00:18:35;;;;;;;8.95;6.85;;;17.20;99.90;;;;;;5125066;28;20194;-74
2021/06/24 00:21:00;;;;;;;12.15;6.82;;;17.20;99.90;;;;;;5127177;28;20162;-74
2021/06/24 00:23:26;;;;;;;10.25;6.65;;;17.20;99.90;;;;;;5109225;28;20174;-74
2021/06/24 00:25:55;;;;;;;11.75;6.95;;;17.00;99.90;;;;;;5127212;28;20162;-74
2021/06/24 00:28:23;;;;;;;10.88;7.28;;;17.20;99.90;;;;;;5125021;28;20193;-74
2021/06/24 00:30:49;;;;;;;15.02;7.85;;;17.30;99.90;;;;;;5127085;28;20201;-74
2021/06/24 00:33:16;;;;;;;10.80;7.05;;;17.30;99.90;;;;;;5127146;28;20592;-75
2021/06/24 00:35:42;;;;;;;8.05;7.07;;;17.40;99.90;;;;;;5127197;28;20162;-74
2021/06/24 00:38:08;;;;;;;13.80;7.40;;;17.30;99.90;;;;;;5124372;28;20162;-74
2021/06/24 00:40:37;;;;;;;11.98;7.32;;;17.50;99.90;;;;;;5127084;28;20174;-74
2021/06/24 00:43:08;;;;;;;9.45;7.05;;;17.50;99.90;;;;;;5126586;28;20192;-74
2021/06/24 00:45:34;;;;;;;15.65;7.20;;;17.60;99.90;;;;;;5127136;28;20216;-75
2021/06/24 00:48:01;;;;;;;10.95;7.75;;;17.60;99.90;;;;;;5124465;28;20700;-74
2021/06/24 00:50:27;;;;;;;13.65;8.07;;;17.60;99.90;;;;;;5127051;28;20222;-74
2021/06/24 00:52:52;;;;;;;16.75;8.13;;;17.60;99.90;;;;;;5108689;28;20216;-74
2021/06/24 00:55:39;;;;;;;18.00;8.57;;;17.50;99.90;;;;;;5127221;28;20159;-74
2021/06/24 00:58:04;;;;;;;17.42;7.95;;;17.50;99.90;;;;;;5123641;28;20174;-74
2021/06/24 01:00:30;;;;;;;17.83;8.63;;;17.20;99.90;;;;;;5126560;28;20167;-74
2021/06/24 01:02:55;;;;;;;12.80;8.13;;;17.20;99.90;;;;;;5126462;28;20175;-75
2021/06/24 01:05:21;;;;;;;12.95;9.18;;;17.10;99.90;;;;;;5108447;28;20219;-74
2021/06/24 01:07:47;;;;;;;23.95;8.43;;;17.20;99.90;;;;;;5085621;28;20217;-73
2021/06/24 01:10:12;;;;;;;13.05;9.35;;;17.50;99.90;;;;;;5087949;28;20318;-74
2021/06/24 01:12:38;;;;;;;16.85;9.60;;;17.60;99.90;;;;;;5105806;28;20194;-74
2021/06/24 01:15:05;;;;;;;15.30;9.38;;;17.70;99.90;;;;;;5106358;28;20225;-74
2021/06/24 01:17:30;;;;;;;14.80;9.45;;;17.60;99.90;;;;;;5103274;28;20186;-74
2021/06/24 01:19:56;;;;;;;11.57;8.88;;;17.50;99.90;;;;;;5106034;28;20554;-73
2021/06/24 01:22:21;;;;;;;15.10;9.13;;;17.50;99.90;;;;;;5105913;28;20181;-74
2021/06/24 01:24:47;;;;;;;15.85;9.32;;;17.50;99.90;;;;;;5106284;28;20193;-74
2021/06/24 01:27:13;;;;;;;12.75;9.85;;;17.40;99.90;;;;;;5103474;28;20228;-74
2021/06/24 01:29:38;;;;;;;14.20;10.38;;;17.40;99.90;;;;;;5105844;28;20160;-74
2021/06/24 01:32:04;;;;;;;16.60;9.45;;;17.40;99.90;;;;;;5105530;28;20191;-74
2021/06/24 01:34:30;;;;;;;13.63;9.55;;;17.50;99.90;;;;;;5088064;28;20167;-73
2021/06/24 01:36:55;;;;;;;13.07;9.38;;;17.50;99.90;;;;;;5087126;28;20206;-74
2021/06/24 01:39:21;;;;;;;14.25;10.30;;;17.50;99.90;;;;;;5103906;28;20152;-74
2021/06/24 01:41:58;;;;;;;13.00;10.10;;;17.40;99.90;;;;;;5087219;28;20186;-74
2021/06/24 01:44:42;;;;;;;16.17;9.70;;;17.30;99.90;;;;;;5106092;28;20155;-75
2021/06/24 01:47:10;;;;;;;13.82;10.32;;;17.10;99.90;;;;;;5104156;28;20167;-74
2021/06/24 01:49:36;;;;;;;15.20;9.82;;;16.90;99.90;;;;;;5108213;28;20159;-74
2021/06/24 01:52:02;;;;;;;18.30;11.13;;;16.90;99.90;;;;;;5091599;28;20225;-74
2021/06/24 01:54:27;;;;;;;13.95;9.95;;;16.70;99.90;;;;;;5109872;28;20165;-74
2021/06/24 01:56:53;;;;;;;14.75;10.55;;;16.60;99.90;;;;;;5109494;28;20191;-74
2021/06/24 01:59:19;;;;;;;19.33;12.05;;;16.70;99.90;;;;;;5107775;28;20159;-74
2021/06/24 02:01:45;;;;;;;19.15;10.98;;;16.70;99.90;;;;;;5109556;28;20167;-74
2021/06/24 02:04:11;;;;;;;18.95;10.55;;;16.70;99.90;;;;;;5091476;28;20175;-74
2021/06/24 02:06:38;;;;;;;18.83;11.38;;;16.60;99.90;;;;;;5119956;28;20210;-74
2021/06/24 02:09:04;;;;;;;12.80;11.27;;;16.60;99.90;;;;;;5127444;28;20155;-74
2021/06/24 02:11:30;;;;;;;15.27;11.25;;;16.60;99.90;;;;;;5129555;28;20194;-74
2021/06/24 02:13:56;;;;;;;18.20;11.65;;;16.50;99.90;;;;;;5129842;28;20166;-74
2021/06/24 02:16:22;;;;;;;22.27;11.70;;;16.50;99.90;;;;;;5130151;28;20163;-74
2021/06/24 02:18:48;;;;;;;15.38;12.85;;;16.50;99.90;;;;;;5127631;28;20565;-74
2021/06/24 02:21:13;;;;;;;20.30;12.75;;;16.60;99.90;;;;;;5129674;28;20154;-74
2021/06/24 02:23:39;;;;;;;16.35;14.05;;;16.80;99.90;;;;;;5111595;28;20170;-74
2021/06/24 02:26:05;;;;;;;24.10;15.40;;;17.00;99.90;;;;;;5129464;28;20163;-74
2021/06/24 02:28:31;;;;;;;21.83;15.48;;;17.00;99.90;;;;;;5126902;28;20158;-74
2021/06/24 02:30:56;;;;;;;21.92;15.10;;;17.00;99.90;;;;;;5129317;28;20201;-74
2021/06/24 02:33:23;;;;;;;22.52;16.23;;;16.90;99.90;;;;;;5111387;28;20166;-74
2021/06/24 02:35:56;;;;;;;18.85;15.25;;;16.90;99.90;;;;;;5129788;28;20158;-74
2021/06/24 02:38:22;;;;;;;21.85;15.40;;;16.90;99.90;;;;;;5127206;28;20676;-73
2021/06/24 02:40:48;;;;;;;26.50;16.70;;;16.80;99.90;;;;;;5129353;28;20174;-74
2021/06/24 02:43:13;;;;;;;19.92;16.00;;;17.00;99.90;;;;;;5129043;28;20178;-74
2021/06/24 02:45:43;;;;;;;20.65;16.05;;;16.90;99.90;;;;;;5129629;28;20168;-75
2021/06/24 02:48:08;;;;;;;20.63;15.50;;;16.90;99.90;;;;;;5126616;28;20656;-74
2021/06/24 02:50:35;;;;;;;22.67;15.98;;;16.90;99.90;;;;;;5129198;28;20163;-74
2021/06/24 02:53:00;;;;;;;22.10;15.90;;;16.90;99.90;;;;;;5128951;28;20167;-74
2021/06/24 02:55:30;;;;;;;25.58;16.38;;;16.70;99.90;;;;;;5129490;28;20166;-75
2021/06/24 02:58:00;;;;;;;24.48;15.57;;;16.70;99.90;;;;;;5107723;28;20200;-74
2021/06/24 03:00:27;;;;;;;22.83;16.67;;;16.70;99.90;;;;;;5129060;28;20342;-74
2021/06/24 03:02:53;;;;;;;22.42;15.45;;;16.80;99.90;;;;;;5128947;28;20191;-75
2021/06/24 03:05:20;;;;;;;18.27;15.85;;;16.90;99.90;;;;;;5110723;28;20159;-74
2021/06/24 03:07:46;;;;;;;19.27;16.08;;;16.90;99.90;;;;;;5108061;28;20225;-74
2021/06/24 03:10:12;;;;;;;26.70;16.48;;;16.80;99.90;;;;;;5128947;28;20163;-74
2021/06/24 03:12:38;;;;;;;23.95;16.77;;;16.80;99.90;;;;;;5110127;28;20197;-74
2021/06/24 03:15:05;;;;;;;22.00;16.25;;;16.90;99.90;;;;;;5128949;28;20227;-74
2021/06/24 03:17:31;;;;;;;28.20;16.08;;;17.00;99.90;;;;;;5107914;28;20191;-74
2021/06/24 03:19:57;;;;;;;20.10;14.57;;;17.00;99.90;;;;;;5128570;28;20170;-74
2021/06/24 03:22:23;;;;;;;23.10;15.43;;;16.90;99.90;;;;;;5110271;28;20166;-75
2021/06/24 03:24:50;;;;;;;25.80;15.73;;;16.80;99.90;;;;;;5128746;28;20170;-74
2021/06/24 03:27:15;;;;;;;28.85;16.42;;;16.90;99.90;;;;;;5125849;28;20168;-74
2021/06/24 03:29:41;;;;;;;22.08;15.75;;;17.10;99.90;;;;;;5110288;28;20194;-75
2021/06/24 03:32:07;;;;;;;24.42;15.88;;;17.00;99.90;;;;;;5127896;28;20194;-74
2021/06/24 03:34:33;;;;;;;16.25;14.52;;;17.10;99.90;;;;;;5110382;28;20226;-74
2021/06/24 03:36:59;;;;;;;19.05;15.75;;;17.20;99.90;;;;;;5109534;28;20155;-74
2021/06/24 03:39:24;;;;;;;26.17;16.20;;;17.10;99.90;;;;;;5126722;28;20159;-74
2021/06/24 03:41:50;;;;;;;18.80;15.32;;;17.00;99.90;;;;;;5127761;28;20171;-74
2021/06/24 03:44:16;;;;;;;25.40;15.32;;;17.00;99.90;;;;;;5128450;28;20241;-75
2021/06/24 03:46:41;;;;;;;18.90;15.07;;;16.90;99.90;;;;;;5109863;28;20171;-75
2021/06/24 03:49:07;;;;;;;28.42;15.70;;;17.10;99.90;;;;;;5125629;28;20166;-74
2021/06/24 03:51:33;;;;;;;17.52;15.25;;;17.20;99.90;;;;;;5128133;28;20192;-75
2021/06/24 03:53:59;;;;;;;22.58;15.45;;;17.10;99.90;;;;;;5127951;28;20704;-74
2021/06/24 03:56:25;;;;;;;19.45;14.23;;;17.10;99.90;;;;;;5127724;28;20159;-74
2021/06/24 03:58:50;;;;;;;24.35;14.40;;;17.30;99.90;;;;;;5125483;28;20154;-74
2021/06/24 04:01:16;;;;;;;18.70;14.10;;;17.30;99.90;;;;;;5127756;28;20166;-74
2021/06/24 04:03:42;;;;;;;29.92;15.05;;;17.40;99.90;;;;;;5127766;28;20627;-74
2021/06/24 04:06:07;;;;;;;23.17;14.15;;;17.40;99.90;;;;;;5127499;28;20202;-74
2021/06/24 04:08:33;;;;;;;13.80;12.43;;;17.30;99.90;;;;;;5107089;28;20166;-75
2021/06/24 04:10:59;;;;;;;18.70;14.77;;;17.10;99.90;;;;;;5126741;28;20722;-74
2021/06/24 04:13:25;;;;;;;14.88;13.27;;;17.10;99.90;;;;;;5109185;28;20174;-74
2021/06/24 04:15:51;;;;;;;16.45;13.52;;;17.30;99.90;;;;;;5127712;28;20186;-74
2021/06/24 04:18:17;;;;;;;21.42;14.82;;;17.30;99.90;;;;;;5124896;28;20170;-75
2021/06/24 04:20:42;;;;;;;24.45;13.93;;;17.30;99.90;;;;;;5109518;28;20155;-74
2021/06/24 04:23:08;;;;;;;15.40;12.30;;;17.40;99.90;;;;;;5127338;28;20166;-74
2021/06/24 04:25:34;;;;;;;18.90;12.85;;;17.40;99.90;;;;;;5127383;28;20240;-74
2021/06/24 04:28:00;;;;;;;16.40;12.68;;;17.40;99.90;;;;;;5105945;28;20167;-74
2021/06/24 04:30:27;;;;;;;22.00;12.88;;;17.40;99.90;;;;;;5127479;28;20182;-74
2021/06/24 04:32:54;;;;;;;14.25;12.75;;;17.30;99.90;;;;;;5127023;28;20223;-74
2021/06/24 04:35:20;;;;;;;17.77;13.00;;;17.40;99.90;;;;;;5127132;28;20192;-75
2021/06/24 04:37:46;;;;;;;15.18;13.25;;;17.40;99.90;;;;;;5124452;28;20159;-74
2021/06/24 04:40:12;;;;;;;15.18;13.00;;;17.40;99.90;;;;;;5127195;28;20173;-74
2021/06/24 04:42:38;;;;;;;15.63;13.25;;;17.40;99.90;;;;;;5126386;28;20235;-74
2021/06/24 04:45:05;;;;;;;15.35;12.88;;;17.50;99.90;;;;;;5126746;28;20166;-74
2021/06/24 04:47:31;;;;;;;13.60;11.73;;;17.50;99.90;;;;;;5124434;28;20154;-74
2021/06/24 04:49:57;;;;;;;19.85;12.75;;;17.50;99.90;;;;;;5108610;28;20166;-75
2021/06/24 04:52:23;;;;;;;14.05;12.00;;;17.60;99.90;;;;;;5126451;28;20198;-74
2021/06/24 04:54:48;;;;;;;21.15;12.52;;;17.50;99.90;;;;;;5126887;28;20155;-74
2021/06/24 04:57:14;;;;;;;16.13;12.05;;;17.60;99.90;;;;;;5124135;28;20838;-73
2021/06/24 04:59:39;;;;;;;23.77;12.77;;;17.80;99.90;;;;;;5126926;28;20288;-75
2021/06/24 05:02:05;;;;;;;18.75;12.23;;;17.80;99.90;;;;;;5107898;28;20785;-74
2021/06/24 05:04:31;;;;;;;19.77;13.75;;;17.70;99.90;;;;;;5126688;28;20158;-74
2021/06/24 05:07:01;;;;;;;19.08;12.70;;;17.90;99.90;;;;;;5126114;28;20242;-73
2021/06/24 05:09:29;;;;;;;18.77;13.02;;;17.80;99.90;;;;;;5125076;28;20169;-74
2021/06/24 05:11:55;;;;;;;21.73;13.35;;;17.90;99.90;;;;;;5125962;28;20190;-73
2021/06/24 05:14:21;;;;;;;19.38;12.93;;;17.90;99.90;;;;;;5126680;28;20183;-74
2021/06/24 05:16:47;;;;;;;18.95;13.27;;;17.80;99.90;;;;;;5126662;28;20159;-74
2021/06/24 05:19:13;;;;;;;17.70;12.30;;;17.80;99.90;;;;;;5123714;28;20167;-74
2021/06/24 05:21:39;;;;;;;18.80;13.13;;;17.90;99.90;;;;;;5107737;28;20485;-74
2021/06/24 05:24:06;;;;;;;22.60;12.52;;;17.80;99.90;;;;;;5125394;28;20197;-75
2021/06/24 05:26:32;;;;;;;19.30;13.82;;;17.80;99.90;;;;;;5126291;28;20162;-74
2021/06/24 05:28:57;;;;;;;21.10;13.65;;;17.80;99.90;;;;;;5123832;28;20170;-74
2021/06/24 05:31:23;;;;;;;17.65;12.35;;;17.80;99.90;;;;;;5126288;28;20204;-73
2021/06/24 05:33:49;;;;;;;24.60;13.75;;;17.90;99.90;;;;;;5107913;28;20185;-73
2021/06/24 05:36:15;;;;;;;20.92;13.82;;;18.00;99.90;;;;;;5107894;28;20184;-74
2021/06/24 05:38:40;;;;;;;21.20;14.30;;;17.90;99.90;;;;;;5123785;28;20184;-74
2021/06/24 05:41:06;;;;;;;23.58;14.68;;;18.00;99.90;;;;;;5107858;28;20178;-74
2021/06/24 05:43:32;;;;;;;27.27;14.40;;;18.10;99.90;;;;;;5125777;28;20163;-75
2021/06/24 05:45:57;;;;;;;15.27;12.60;;;18.00;99.90;;;;;;5126023;28;20170;-74
2021/06/24 05:48:23;;;;;;;19.55;13.02;;;18.00;99.90;;;;;;5123745;28;20159;-74
2021/06/24 05:50:49;;;;;;;19.42;13.02;;;17.70;99.90;;;;;;5126284;28;20170;-74
2021/06/24 05:53:14;;;;;;;18.65;12.43;;;17.30;99.90;;;;;;5126026;28;20186;-74
2021/06/24 05:55:52;;;;;;;21.27;12.00;;;17.20;99.90;;;;;;5126204;28;20636;-75
2021/06/24 05:58:23;;;;;;;14.55;11.43;;;17.10;99.90;;;;;;5123400;28;20158;-75
2021/06/24 06:00:51;;;;;;;22.00;11.68;;;17.10;99.90;;;;;;5107881;28;20171;-75
2021/06/24 06:03:18;;;;;;;20.98;11.30;;;17.10;99.90;;;;;;5107517;28;20174;-75
2021/06/24 06:05:44;;;;;;;13.07;11.13;;;17.10;99.90;;;;;;5125912;28;20710;-74
2021/06/24 06:08:10;;;;;;;12.98;11.30;;;17.10;99.90;;;;;;5123350;28;20241;-74
2021/06/24 06:10:38;;;;;;;18.08;11.30;;;17.20;99.90;;;;;;5126028;28;20182;-75
2021/06/24 06:13:05;;;;;;;16.63;10.75;;;17.20;99.90;;;;;;5125552;28;20162;-75
2021/06/24 06:15:36;;;;;;;17.83;10.65;;;17.20;99.90;;;;;;5125943;28;20151;-74
2021/06/24 06:18:08;;;;;;;21.13;11.15;;;17.30;99.90;;;;;;5123312;28;20154;-75
2021/06/24 06:20:34;;;;;;;16.58;10.25;;;17.10;99.90;;;;;;5126064;28;20261;-75
2021/06/24 06:23:00;;;;;;;17.20;10.68;;;17.20;99.90;;;;;;5125732;28;20170;-74
2021/06/24 06:25:25;;;;;;;15.65;9.88;;;17.30;99.90;;;;;;5126020;28;20227;-74
2021/06/24 06:27:51;;;;;;;15.73;10.55;;;17.40;99.90;;;;;;5122845;28;20234;-74
2021/06/24 06:30:17;;;;;;;20.00;10.25;;;17.40;99.90;;;;;;5107560;28;20188;-75
2021/06/24 06:32:43;;;;;;;14.82;10.32;;;17.40;99.90;;;;;;5107254;28;20190;-74
2021/06/24 06:35:09;;;;;;;13.40;10.15;;;17.60;99.90;;;;;;5127545;28;20163;-73
2021/06/24 06:37:34;;;;;;;20.08;11.00;;;17.80;99.90;;;;;;5127091;28;20443;-74
2021/06/24 06:40:00;;;;;;;13.85;10.73;;;17.80;99.90;;;;;;5111236;28;20177;-75
2021/06/24 06:42:26;;;;;;;17.77;10.85;;;17.80;99.90;;;;;;5129051;28;20181;-74
2021/06/24 06:44:51;;;;;;;16.05;10.02;;;17.60;99.90;;;;;;5129624;28;20163;-74
2021/06/24 06:47:17;;;;;;;13.68;9.80;;;17.70;99.90;;;;;;5126861;28;20293;-74
2021/06/24 06:49:43;;;;;;;18.38;9.98;;;17.80;99.90;;;;;;5129510;28;20182;-74
2021/06/24 06:52:09;;;;;;;16.17;9.70;;;17.90;99.90;;;;;;5128965;28;20216;-74
2021/06/24 06:54:34;;;;;;;10.52;9.07;;;18.00;99.90;;;;;;5129451;28;20662;-75
2021/06/24 06:57:00;;;;;;;16.20;9.77;;;18.10;99.90;;;;;;5127999;28;20174;-75
2021/06/24 06:59:26;;;;;;;17.58;9.85;;;18.20;99.90;;;;;;5109341;28;20232;-74
2021/06/24 07:01:51;;;;;;;16.85;10.40;;;18.40;99.90;;;;;;5129160;28;20162;-75
2021/06/24 07:04:17;;;;;;;16.83;9.48;;;18.20;99.90;;;;;;5129006;28;20640;-74
2021/06/24 07:06:42;;;;;;;23.08;10.70;;;18.00;99.90;;;;;;5128910;28;20206;-74
2021/06/24 07:09:08;;;;;;;15.77;10.00;;;18.00;99.90;;;;;;5107975;28;20162;-74
2021/06/24 07:11:34;;;;;;;14.27;9.45;;;18.20;99.90;;;;;;5128501;28;20560;-75
2021/06/24 07:14:00;;;;;;;17.77;10.00;;;18.40;99.90;;;;;;5128834;28;20162;-75
2021/06/24 07:16:25;;;;;;;15.55;10.70;;;18.40;99.90;;;;;;5110589;28;20163;-75
2021/06/24 07:18:51;;;;;;;12.60;10.05;;;18.20;99.90;;;;;;5126380;28;20167;-74
2021/06/24 07:21:16;;;;;;;12.97;9.67;;;18.60;99.90;;;;;;5128514;28;20411;-74
2021/06/24 07:23:42;;;;;;;22.70;9.82;;;18.90;99.90;;;;;;5128672;28;20171;-75
2021/06/24 07:26:08;;;;;;;13.27;9.23;;;18.80;99.90;;;;;;5110273;28;20158;-74
2021/06/24 07:28:34;;;;;;;13.02;9.25;;;18.70;99.90;;;;;;5125621;28;20234;-75
2021/06/24 07:30:59;;;;;;;16.77;9.50;;;18.50;99.90;;;;;;5128085;28;20202;-74
2021/06/24 07:33:25;;;;;;;14.65;10.32;;;18.50;99.90;;;;;;5128246;28;20202;-74
2021/06/24 07:35:51;;;;;;;16.60;9.10;;;18.40;99.90;;;;;;5110030;28;20171;-74
2021/06/24 07:38:17;;;;;;;15.35;9.38;;;18.80;99.90;;;;;;5125541;28;20181;-75
2021/06/24 07:40:42;;;;;;;18.40;9.50;;;18.80;99.90;;;;;;5128199;28;20636;-75
2021/06/24 07:43:08;;;;;;;16.92;9.98;;;18.70;99.90;;;;;;5127833;28;20170;-75
2021/06/24 07:45:36;;;;;;;19.92;10.27;;;18.60;99.90;;;;;;5109495;28;20163;-74
2021/06/24 07:48:03;;;;;;;13.68;10.55;;;18.60;99.90;;;;;;5106588;28;20163;-74
2021/06/24 07:50:30;;;;;;;23.83;11.43;;;18.90;99.90;;;;;;5109857;28;20162;-75
2021/06/24 07:52:56;;;;;;;17.17;10.68;;;19.20;99.90;;;;;;5127771;28;20190;-75
2021/06/24 07:55:21;;;;;;;20.75;10.30;;;19.30;99.90;;;;;;5128241;28;20165;-75
2021/06/24 07:57:47;;;;;;;15.52;9.32;;;19.10;99.90;;;;;;5125205;28;20159;-74
2021/06/24 08:00:13;;;;;;;13.32;10.32;;;19.30;99.90;;;;;;5127836;28;20229;-75
2021/06/24 08:02:39;;;;;;;19.83;10.40;;;19.40;99.90;;;;;;5127628;28;20173;-74
2021/06/24 08:05:06;;;;;;;16.55;10.05;;;19.40;99.90;;;;;;5127677;28;20229;-74
2021/06/24 08:07:32;;;;;;;14.70;10.07;;;19.50;99.90;;;;;;5089083;28;20239;-75
2021/06/24 08:10:02;;;;;;;12.77;9.60;;;19.40;99.90;;;;;;5107289;28;20647;-74
2021/06/24 08:12:29;;;;;;;18.17;10.18;;;19.50;99.90;;;;;;5106917;28;20187;-75
2021/06/24 08:14:55;;;;;;;13.82;10.40;;;19.30;99.90;;;;;;5088928;28;20538;-73
2021/06/24 08:17:20;;;;;;;13.95;9.90;;;19.50;99.90;;;;;;5104612;28;20155;-74
2021/06/24 08:19:46;;;;;;;11.32;9.30;;;19.80;99.90;;;;;;5107097;28;20645;-74
2021/06/24 08:22:12;;;;;;;18.13;10.88;;;20.10;99.90;;;;;;5088737;28;20171;-74
2021/06/24 08:24:37;;;;;;;11.23;9.52;;;20.50;99.90;;;;;;5107036;28;20188;-74
2021/06/24 08:27:03;;;;;;;16.95;9.73;;;20.80;99.90;;;;;;5105308;28;20175;-74
2021/06/24 08:29:29;;;;;;;17.70;10.07;;;20.90;99.90;;;;;;5105944;28;20507;-74
2021/06/24 08:31:55;;;;;;;20.38;9.70;;;20.50;99.90;;;;;;5106482;28;20187;-74
2021/06/24 08:34:20;;;;;;;18.08;10.02;;;20.00;99.90;;;;;;5088548;28;20191;-74
2021/06/24 08:36:46;;;;;;;11.85;9.57;;;20.10;99.90;;;;;;5088564;28;20250;-74
2021/06/24 08:39:12;;;;;;;13.82;10.00;;;20.30;99.90;;;;;;5104190;28;20383;-74
2021/06/24 08:41:38;;;;;;;12.35;8.93;;;20.40;99.90;;;;;;5087777;28;20164;-74
2021/06/24 08:44:06;;;;;;;13.90;9.55;;;20.20;99.90;;;;;;5106327;28;20182;-74
2021/06/24 08:46:32;;;;;;;17.83;9.90;;;20.30;99.90;;;;;;5106591;28;20169;-74
2021/06/24 08:49:00;;;;;;;12.77;10.05;;;20.20;99.90;;;;;;5104125;28;20191;-74
2021/06/24 08:51:26;;;;;;;20.45;10.43;;;20.30;99.90;;;;;;5106444;28;20274;-74
2021/06/24 08:53:55;;;;;;;18.63;10.57;;;20.40;99.90;;;;;;5106589;28;20163;-74
2021/06/24 08:56:20;;;;;;;17.77;10.65;;;20.30;99.90;;;;;;5106353;28;20156;-74
2021/06/24 08:58:48;;;;;;;15.40;10.63;;;20.50;99.90;;;;;;5103797;28;20169;-74
2021/06/24 09:01:14;;;;;;;20.70;11.25;;;20.60;99.90;;;;;;5106192;28;20159;-74
2021/06/24 09:03:39;;;;;;;18.13;10.25;;;20.60;99.90;;;;;;5106113;28;20532;-74
2021/06/24 09:06:09;;;;;;;16.40;10.90;;;20.30;99.90;;;;;;5093443;28;20225;-74
2021/06/24 09:08:37;;;;;;;15.40;10.23;;;20.70;99.90;;;;;;5124226;28;20163;-74
2021/06/24 09:11:07;;;;;;;12.63;10.23;;;21.20;99.90;;;;;;5126570;28;20197;-75
2021/06/24 09:13:32;;;;;;;11.82;10.07;;;21.20;99.90;;;;;;5126444;28;20170;-74
2021/06/24 09:16:17;;;;;;;20.77;10.40;;;21.00;99.90;;;;;;5126749;28;20181;-75
2021/06/24 09:18:42;;;;;;;18.75;11.68;;;21.30;99.90;;;;;;5105693;28;20659;-75
2021/06/24 09:21:18;;;;;;;15.68;11.38;;;21.10;99.90;;;;;;5126380;28;20168;-75
2021/06/24 09:23:43;;;;;;;15.80;11.65;;;20.70;99.90;;;;;;5108042;28;20181;-74
2021/06/24 09:26:13;;;;;;;20.60;10.38;;;20.60;99.90;;;;;;5126181;28;20253;-74
2021/06/24 09:28:40;;;;;;;15.25;10.88;;;20.80;99.90;;;;;;5123829;28;20198;-73
2021/06/24 09:31:24;;;;;;;18.58;11.57;;;20.50;99.90;;;;;;5126165;28;20201;-73
2021/06/24 09:33:50;;;;;;;16.02;10.73;;;20.30;99.90;;;;;;5126199;28;20349;-74
2021/06/24 09:36:37;;;;;;;20.75;11.95;;;20.50;99.90;;;;;;5125506;28;20162;-74
2021/06/24 09:39:09;;;;;;;15.02;10.73;;;21.00;99.90;;;;;;5123358;28;20159;-74
2021/06/24 09:41:35;;;;;;;15.57;11.60;;;21.20;99.90;;;;;;5107329;28;20166;-74
2021/06/24 09:44:21;;;;;;;18.98;11.93;;;21.00;99.90;;;;;;5107839;28;20174;-74
2021/06/24 09:46:48;;;;;;;19.08;11.50;;;21.20;99.90;;;;;;5126335;28;20568;-74
2021/06/24 09:49:31;;;;;;;16.33;11.40;;;21.20;99.90;;;;;;5123547;28;20154;-74
2021/06/24 09:51:58;;;;;;;15.40;9.77;;;21.60;99.90;;;;;;5125599;28;20554;-73
2021/06/24 09:54:31;;;;;;;14.02;10.05;;;21.80;99.90;;;;;;5108012;28;20162;-73
2021/06/24 09:56:58;;;;;;;15.75;10.50;;;21.00;99.90;;;;;;5125257;28;20701;-73
2021/06/24 09:59:33;;;;;;;13.98;9.82;;;20.70;99.90;;;;;;5124534;28;20182;-73
2021/06/24 10:02:10;;;;;;;17.83;9.75;;;20.50;99.90;;;;;;5125767;28;20177;-74
2021/06/24 10:04:38;;;;;;;14.55;9.23;;;20.70;99.90;;;;;;5125847;28;20675;-73
2021/06/24 10:07:08;;;;;;;13.25;9.30;;;21.20;99.90;;;;;;5124644;28;20211;-73
2021/06/24 10:09:33;;;;;;;11.95;9.23;;;21.00;99.90;;;;;;5107958;28;20249;-74
2021/06/24 10:12:00;;;;;;;15.52;9.20;;;21.20;99.90;;;;;;5129302;28;20191;-73
2021/06/24 10:14:27;;;;;;;14.13;9.63;;;20.80;99.90;;;;;;5130078;28;20174;-73
2021/06/24 10:16:58;;;;;;;19.88;9.13;;;21.10;99.90;;;;;;5130043;28;20190;-73
2021/06/24 10:19:32;;;;;;;16.98;8.95;;;21.30;99.90;;;;;;5127910;28;20159;-73
2021/06/24 10:22:12;;;;;;;12.93;8.95;;;20.90;99.90;;;;;;5129672;28;20215;-73
2021/06/24 10:24:51;;;;;;;15.27;9.13;;;20.70;99.90;;;;;;5129535;28;20719;-74
2021/06/24 10:27:19;;;;;;;14.63;8.40;;;20.50;99.90;;;;;;5108391;28;20246;-73
2021/06/24 10:29:49;;;;;;;12.75;7.82;;;20.50;99.90;;;;;;5129889;28;20165;-73
2021/06/24 10:32:27;;;;;;;16.30;9.80;;;20.10;99.90;;;;;;5129440;28;20251;-73
2021/06/24 10:34:54;;;;;;;11.15;8.82;;;20.20;99.90;;;;;;5111282;28;20171;-73
2021/06/24 10:37:25;;;;;;;13.90;9.52;;;20.10;99.90;;;;;;5108726;28;20193;-73
2021/06/24 10:39:53;;;;;;;14.95;8.65;;;20.30;99.90;;;;;;5129691;28;20159;-74
2021/06/24 10:42:21;;;;;;;11.88;9.25;;;20.60;99.90;;;;;;5129144;28;20178;-74
2021/06/24 10:44:54;;;;;;;13.30;9.80;;;20.70;99.90;;;;;;5129466;28;20171;-74
2021/06/24 10:47:28;;;;;;;15.75;9.38;;;20.70;99.90;;;;;;5126618;28;20154;-74
2021/06/24 10:49:54;;;;;;;17.08;11.00;;;20.80;99.90;;;;;;5129269;28;20159;-73
2021/06/24 10:52:26;;;;;;;16.77;10.93;;;20.30;99.90;;;;;;5129114;28;20222;-73
2021/06/24 10:54:56;;;;;;;20.73;12.45;;;20.20;99.90;;;;;;5129288;28;20162;-72
2021/06/24 10:57:36;;;;;;;16.60;13.07;;;20.00;99.90;;;;;;5126336;28;20162;-73
2021/06/24 11:00:36;;;;;;;25.17;13.20;;;19.90;99.90;;;;;;5129135;28;20167;-73
2021/06/24 11:03:13;;;;;;;22.98;13.00;;;20.10;99.90;;;;;;5128782;28;20174;-73
2021/06/24 11:05:40;;;;;;;20.10;12.25;;;20.30;99.90;;;;;;5110526;28;20165;-74
2021/06/24 11:08:13;;;;;;;19.10;11.50;;;20.30;99.90;;;;;;5126508;28;20182;-73
2021/06/24 11:10:59;;;;;;;21.02;12.40;;;20.50;99.90;;;;;;5128977;28;20162;-74
2021/06/24 11:16:06;;;;;;;14.93;10.38;;;21.40;99.90;;;;;;5129053;28;20162;-74
2021/06/24 11:18:35;;;;;;;19.50;10.20;;;21.30;99.90;;;;;;5126323;28;20189;-73
2021/06/24 11:21:03;;;;;;;16.52;10.10;;;21.60;99.90;;;;;;5127456;28;20155;-74
2021/06/24 11:23:36;;;;;;;13.27;8.23;;;21.40;99.90;;;;;;5128482;28;20170;-74
2021/06/24 11:26:12;;;;;;;10.43;8.15;;;21.50;99.90;;;;;;5128762;28;20161;-74
2021/06/24 11:28:53;;;;;;;12.57;9.10;;;21.40;99.90;;;;;;5107460;28;20179;-74
2021/06/24 11:36:52;;;;;;;13.35;10.52;;;20.80;99.90;;;;;;5128801;28;20190;-74
2021/06/24 11:39:26;;;;;;;15.55;10.15;;;20.70;99.90;;;;;;5126248;28;20159;-75
2021/06/24 11:41:57;;;;;;;13.38;9.85;;;20.70;99.90;;;;;;5127984;28;20243;-73
2021/06/24 11:44:36;;;;;;;14.75;9.88;;;20.70;99.90;;;;;;5128342;28;20159;-74
2021/06/24 11:47:09;;;;;;;20.75;9.05;;;20.40;99.90;;;;;;5127308;28;20178;-73
2021/06/24 12:01:54;;;;;;;18.42;10.63;;;20.60;99.90;;;;;;5128277;28;20177;-74
2021/06/24 12:04:10;;;;;;;13.05;10.18;;;20.80;99.90;;;;;;5126815;28;20178;-74
2021/06/24 12:07:18;;;;;;;16.07;10.10;;;21.00;99.90;;;;;;5127443;28;20905;-74
2021/06/24 12:09:50;;;;;;;10.65;9.00;;;20.90;99.90;;;;;;5127179;28;20417;-75
2021/06/24 12:12:19;;;;;;;11.57;9.02;;;21.20;99.90;;;;;;5127108;28;20194;-74
2021/06/24 12:14:45;;;;;;;11.48;9.45;;;21.10;99.90;;;;;;5127791;28;20758;-74
2021/06/24 12:17:25;;;;;;;14.52;9.50;;;21.40;99.90;;;;;;5125569;28;20342;-74
2021/06/24 12:19:55;;;;;;;12.90;9.35;;;21.50;99.90;;;;;;5127933;28;20253;-74
2021/06/24 12:22:39;;;;;;;14.45;9.88;;;22.00;99.90;;;;;;5127576;28;20158;-74
2021/06/24 12:25:09;;;;;;;14.82;9.20;;;22.40;99.90;;;;;;5109019;28;20174;-75
2021/06/24 12:27:43;;;;;;;19.55;10.10;;;22.30;99.90;;;;;;5124694;28;20182;-74
2021/06/24 12:30:11;;;;;;;13.23;9.40;;;22.60;99.90;;;;;;5127406;28;20167;-75
2021/06/24 12:32:44;;;;;;;16.73;9.95;;;22.70;99.90;;;;;;5126792;28;20216;-75
2021/06/24 12:35:10;;;;;;;16.17;11.23;;;22.90;99.90;;;;;;5127255;28;20167;-74
2021/06/24 12:37:44;;;;;;;14.95;11.23;;;22.60;99.90;;;;;;5124692;28;20177;-75
2021/06/24 12:40:15;;;;;;;18.73;11.25;;;22.60;99.90;;;;;;5127371;28;20162;-75
2021/06/24 12:42:50;;;;;;;14.07;11.13;;;22.40;99.90;;;;;;5126817;28;20179;-75
2021/06/24 12:45:19;;;;;;;18.88;10.52;;;22.30;99.90;;;;;;5126729;28;20170;-74
2021/06/24 12:47:46;;;;;;;17.23;11.25;;;22.30;99.90;;;;;;5106262;28;20171;-74
2021/06/24 12:50:15;;;;;;;18.88;10.50;;;21.90;99.90;;;;;;5127010;28;20162;-74
2021/06/24 12:53:05;;;;;;;11.63;10.50;;;22.20;99.90;;;;;;5126959;28;20243;-74
2021/06/24 12:55:39;;;;;;;12.82;11.07;;;21.50;99.90;;;;;;5114817;28;20204;-74